createdAt,value
2019-02-24T00:01:11.943Z,0.70
2019-02-24T00:03:40.426Z,0.60
2019-02-24T00:06:08.873Z,0.60
2019-02-24T00:08:37.297Z,0.70
2019-02-24T00:11:05.743Z,0.60
2019-02-24T00:13:34.269Z,0.70
2019-02-24T00:16:02.777Z,0.70
2019-02-24T00:18:31.210Z,0.70
2019-02-24T00:20:59.662Z,0.70
2019-02-24T00:23:28.086Z,0.70
2019-02-24T00:25:56.783Z,0.80
2019-02-24T00:28:25.222Z,0.80
2019-02-24T00:30:53.688Z,0.80
2019-02-24T00:33:22.193Z,0.80
2019-02-24T00:35:50.659Z,0.80
2019-02-24T00:38:20.729Z,0.80
2019-02-24T00:40:49.244Z,0.80
2019-02-24T00:43:17.682Z,0.80
2019-02-24T00:45:46.129Z,0.80
2019-02-24T00:48:14.567Z,0.90
2019-02-24T00:50:43.006Z,0.80
2019-02-24T00:53:11.443Z,0.80
2019-02-24T00:55:39.877Z,0.70
2019-02-24T00:58:15.899Z,0.80
2019-02-24T01:00:57.833Z,0.80
2019-02-24T01:03:26.265Z,0.80
2019-02-24T01:05:54.719Z,0.70
2019-02-24T01:08:23.153Z,0.80
2019-02-24T01:10:51.627Z,0.70
2019-02-24T01:13:20.073Z,0.70
2019-02-24T01:15:48.574Z,0.60
2019-02-24T01:18:17.001Z,0.60
2019-02-24T01:20:45.446Z,0.60
2019-02-24T01:23:13.879Z,0.60
2019-02-24T01:25:42.322Z,0.60
2019-02-24T01:28:10.748Z,0.60
2019-02-24T01:30:39.197Z,0.60
2019-02-24T01:33:07.629Z,0.60
2019-02-24T01:35:36.086Z,0.60
2019-02-24T01:38:04.526Z,0.50
2019-02-24T01:40:32.966Z,0.50
2019-02-24T01:43:20.738Z,0.40
2019-02-24T01:45:50.033Z,0.40
2019-02-24T01:48:18.538Z,0.30
2019-02-24T01:50:46.990Z,0.30
2019-02-24T01:53:15.422Z,0.40
2019-02-24T01:55:43.977Z,0.40
2019-02-24T01:58:12.437Z,0.40
2019-02-24T02:00:40.881Z,0.40
2019-02-24T02:03:09.354Z,0.50
2019-02-24T02:05:37.846Z,0.40
2019-02-24T02:08:06.344Z,0.40
2019-02-24T02:10:35.054Z,0.40
2019-02-24T02:13:03.490Z,0.30
2019-02-24T02:15:31.939Z,0.30
2019-02-24T02:18:00.374Z,0.30
2019-02-24T02:20:28.819Z,0.30
2019-02-24T02:22:57.249Z,0.20
2019-02-24T02:25:25.691Z,0.20
2019-02-24T02:27:54.198Z,0.20
2019-02-24T02:30:22.714Z,0.20
2019-02-24T02:32:51.140Z,0.10
2019-02-24T02:35:19.587Z,0.10
2019-02-24T02:37:48.015Z,0.10
2019-02-24T02:40:16.453Z,0.10
2019-02-24T02:42:44.887Z,0.00
2019-02-24T02:45:13.334Z,0.00
2019-02-24T02:47:41.779Z,-0.10
2019-02-24T02:50:10.386Z,-0.10
2019-02-24T02:52:38.835Z,-0.10
2019-02-24T02:55:07.362Z,-0.10
2019-02-24T02:57:35.865Z,-0.10
2019-02-24T03:00:23.669Z,-0.20
2019-02-24T03:02:52.273Z,-0.20
2019-02-24T03:05:21.170Z,-0.20
2019-02-24T03:07:51.391Z,-0.20
2019-02-24T03:10:19.850Z,-0.20
2019-02-24T03:12:48.299Z,-0.20
2019-02-24T03:15:16.733Z,-0.30
2019-02-24T03:17:45.179Z,-0.40
2019-02-24T03:20:13.630Z,-0.40
2019-02-24T03:22:42.159Z,-0.50
2019-02-24T03:25:10.609Z,-0.40
2019-02-24T03:27:39.047Z,-0.40
2019-02-24T03:30:09.454Z,-0.50
2019-02-24T03:32:37.992Z,-0.50
2019-02-24T03:35:06.606Z,-0.50
2019-02-24T03:37:35.119Z,-0.50
2019-02-24T03:40:04.527Z,-0.50
2019-02-24T03:42:32.979Z,-0.50
2019-02-24T03:45:01.423Z,-0.60
2019-02-24T03:47:29.874Z,-0.60
2019-02-24T03:50:17.662Z,-0.60
2019-02-24T03:52:46.125Z,-0.60
2019-02-24T03:55:14.566Z,-0.70
2019-02-24T03:57:43.021Z,-0.70
2019-02-24T04:00:11.530Z,-0.70
2019-02-24T04:02:39.993Z,-0.70
2019-02-24T04:05:08.524Z,-0.70
2019-02-24T04:07:37.108Z,-0.70
2019-02-24T04:10:06.881Z,-0.70
2019-02-24T04:12:35.343Z,-0.70
2019-02-24T04:15:05.129Z,-0.70
2019-02-24T04:17:33.577Z,-0.70
2019-02-24T04:20:02.018Z,-0.70
2019-02-24T04:22:30.459Z,-0.70
2019-02-24T04:24:58.896Z,-0.70
2019-02-24T04:27:27.341Z,-0.70
2019-02-24T04:29:55.779Z,-0.70
2019-02-24T04:32:24.227Z,-0.70
2019-02-24T04:34:52.662Z,-0.70
2019-02-24T04:37:21.102Z,-0.70
2019-02-24T04:39:49.551Z,-0.80
2019-02-24T04:42:18.011Z,-0.80
2019-02-24T04:44:46.441Z,-0.80
2019-02-24T04:47:14.885Z,-0.90
2019-02-24T04:49:43.344Z,-0.90
2019-02-24T04:52:11.785Z,-0.90
2019-02-24T04:54:40.232Z,-0.90
2019-02-24T04:57:08.691Z,-0.80
2019-02-24T04:59:37.140Z,-0.90
2019-02-24T05:02:05.594Z,-0.90
2019-02-24T05:04:34.043Z,-0.90
2019-02-24T05:07:02.498Z,-0.90
2019-02-24T05:09:30.938Z,-0.90
2019-02-24T05:11:59.393Z,-0.90
2019-02-24T05:14:27.846Z,-0.90
2019-02-24T05:16:56.283Z,-0.90
2019-02-24T05:19:24.738Z,-0.90
2019-02-24T05:21:53.183Z,-0.90
2019-02-24T05:24:21.610Z,-0.90
2019-02-24T05:26:50.063Z,-1.00
2019-02-24T05:29:20.347Z,-1.00
2019-02-24T05:31:48.673Z,-1.00
2019-02-24T05:34:17.108Z,-1.00
2019-02-24T05:36:45.573Z,-1.00
2019-02-24T05:39:14.033Z,-1.00
2019-02-24T05:41:42.549Z,-1.00
2019-02-24T05:44:11.027Z,-0.90
2019-02-24T05:46:39.482Z,-0.90
2019-02-24T05:49:07.935Z,-0.80
2019-02-24T05:51:36.398Z,-0.80
2019-02-24T05:54:04.920Z,-0.80
2019-02-24T05:56:33.433Z,-0.80
2019-02-24T05:59:01.928Z,-0.60
2019-02-24T06:01:30.391Z,-0.40
2019-02-24T06:03:58.918Z,-0.30
2019-02-24T06:06:27.462Z,-0.20
2019-02-24T06:08:58.356Z,-0.20
2019-02-24T06:11:26.878Z,-0.20
2019-02-24T06:13:55.344Z,-0.20
2019-02-24T06:16:26.157Z,0.00
2019-02-24T06:18:54.608Z,0.10
2019-02-24T06:21:23.070Z,0.10
2019-02-24T06:23:51.587Z,0.20
2019-02-24T06:26:20.033Z,0.20
2019-02-24T06:28:48.471Z,0.30
2019-02-24T06:31:16.907Z,0.40
2019-02-24T06:33:45.618Z,0.30
2019-02-24T06:36:14.050Z,0.30
2019-02-24T06:38:42.505Z,0.30
2019-02-24T06:41:10.955Z,0.30
2019-02-24T06:43:39.726Z,0.20
2019-02-24T06:46:08.163Z,0.30
2019-02-24T06:48:36.622Z,0.40
2019-02-24T06:51:06.723Z,0.50
2019-02-24T06:53:35.247Z,0.50
2019-02-24T06:56:03.680Z,0.50
2019-02-24T06:58:32.123Z,0.60
2019-02-24T07:01:00.565Z,0.60
2019-02-24T07:03:29.015Z,0.70
2019-02-24T07:06:16.791Z,0.70
2019-02-24T07:08:45.252Z,0.80
2019-02-24T07:11:13.687Z,0.90
2019-02-24T07:14:01.482Z,0.90
2019-02-24T07:16:29.913Z,1.00
2019-02-24T07:18:58.375Z,1.20
2019-02-24T07:21:26.814Z,1.20
2019-02-24T07:23:55.278Z,1.30
2019-02-24T07:26:23.717Z,1.50
2019-02-24T07:28:52.179Z,1.50
2019-02-24T07:31:20.627Z,1.60
2019-02-24T07:33:49.088Z,1.70
2019-02-24T07:36:17.534Z,1.90
2019-02-24T07:38:46.001Z,2.00
2019-02-24T07:41:14.451Z,2.20
2019-02-24T07:43:42.902Z,2.30
2019-02-24T07:46:11.532Z,2.40
2019-02-24T07:48:40.162Z,2.40
2019-02-24T07:51:08.615Z,2.50
2019-02-24T07:53:37.072Z,2.60
2019-02-24T07:56:05.522Z,2.70
2019-02-24T07:58:33.985Z,2.80
2019-02-24T08:01:02.439Z,2.90
2019-02-24T08:03:31.037Z,3.10
2019-02-24T08:05:59.504Z,3.10
2019-02-24T08:08:27.965Z,3.20
2019-02-24T08:10:56.402Z,3.10
2019-02-24T08:13:24.934Z,3.10
2019-02-24T08:15:53.391Z,3.10
2019-02-24T08:18:21.848Z,3.00
2019-02-24T08:20:50.314Z,3.00
2019-02-24T08:23:18.836Z,3.00
2019-02-24T08:25:47.284Z,3.00
2019-02-24T08:28:15.732Z,2.90
2019-02-24T08:30:44.187Z,2.80
2019-02-24T08:33:12.637Z,3.00
2019-02-24T08:35:41.075Z,3.00
2019-02-24T08:38:09.542Z,3.00
2019-02-24T08:40:37.984Z,3.00
2019-02-24T08:43:06.452Z,3.10
2019-02-24T08:45:34.895Z,3.10
2019-02-24T08:48:03.357Z,3.10
2019-02-24T08:50:31.804Z,3.20
2019-02-24T08:53:00.263Z,3.20
2019-02-24T08:55:28.705Z,3.20
2019-02-24T08:57:57.164Z,3.30
2019-02-24T09:00:25.610Z,3.30
2019-02-24T09:02:54.050Z,3.40
2019-02-24T09:05:22.506Z,3.50
2019-02-24T09:07:51.017Z,3.70
2019-02-24T09:10:19.466Z,3.70
2019-02-24T09:12:47.912Z,3.70
2019-02-24T09:15:16.374Z,3.70
2019-02-24T09:17:44.830Z,3.80
2019-02-24T09:20:14.099Z,3.90
2019-02-24T09:22:42.547Z,4.00
2019-02-24T09:25:11.032Z,4.20
2019-02-24T09:27:39.546Z,4.50
2019-02-24T09:30:12.832Z,4.70
2019-02-24T09:32:41.260Z,5.00
2019-02-24T09:35:10.086Z,5.40
2019-02-24T09:37:38.530Z,5.50
2019-02-24T09:40:09.819Z,5.50
2019-02-24T09:42:38.246Z,5.50
2019-02-24T09:45:12.018Z,5.60
2019-02-24T09:47:46.759Z,5.50
2019-02-24T09:50:10.898Z,5.60
2019-02-24T09:52:39.339Z,5.60
2019-02-24T09:55:09.131Z,5.60
2019-02-24T09:57:37.595Z,5.50
2019-02-24T10:00:11.623Z,5.60
2019-02-24T10:02:40.055Z,5.60
2019-02-24T10:05:08.678Z,5.70
2019-02-24T10:07:37.123Z,5.70
2019-02-24T10:10:10.872Z,5.80
2019-02-24T10:12:39.306Z,5.80
2019-02-24T10:15:15.147Z,5.90
2019-02-24T10:17:43.584Z,5.80
2019-02-24T10:20:12.767Z,5.80
2019-02-24T10:22:41.197Z,5.80
2019-02-24T10:25:10.221Z,6.00
2019-02-24T10:27:38.723Z,5.90
2019-02-24T10:30:10.243Z,5.90
2019-02-24T10:32:38.679Z,5.90
2019-02-24T10:35:07.572Z,6.00
2019-02-24T10:37:36.013Z,6.00
2019-02-24T10:40:08.094Z,6.20
2019-02-24T10:42:36.535Z,6.50
2019-02-24T10:45:10.607Z,6.70
2019-02-24T10:47:39.057Z,6.70
2019-02-24T10:50:15.724Z,6.90
2019-02-24T10:52:44.218Z,7.00
2019-02-24T10:55:12.818Z,7.30
2019-02-24T10:58:00.604Z,7.70
2019-02-24T11:00:29.042Z,8.20
2019-02-24T11:02:57.479Z,8.80
2019-02-24T11:05:25.930Z,9.50
2019-02-24T11:07:54.358Z,9.80
2019-02-24T11:10:22.839Z,10.30
2019-02-24T11:12:51.279Z,10.70
2019-02-24T11:15:19.722Z,10.90
2019-02-24T11:18:07.493Z,11.20
2019-02-24T11:20:36.030Z,11.40
2019-02-24T11:23:04.476Z,11.60
2019-02-24T11:25:32.918Z,11.70
2019-02-24T11:28:01.364Z,11.90
2019-02-24T11:30:29.809Z,12.00
2019-02-24T11:32:58.261Z,12.10
2019-02-24T11:35:26.736Z,12.70
2019-02-24T11:37:55.269Z,12.80
2019-02-24T11:40:23.747Z,13.00
2019-02-24T11:42:52.189Z,13.50
2019-02-24T11:45:20.656Z,14.00
2019-02-24T11:47:49.131Z,14.10
2019-02-24T11:50:17.637Z,14.20
2019-02-24T11:52:46.146Z,14.50
2019-02-24T11:55:14.754Z,14.70
2019-02-24T11:57:43.206Z,15.30
2019-02-24T12:00:13.888Z,15.50
2019-02-24T12:02:42.348Z,15.90
2019-02-24T12:05:10.858Z,16.10
2019-02-24T12:07:39.305Z,16.50
2019-02-24T12:10:09.997Z,16.40
2019-02-24T12:12:38.439Z,16.80
2019-02-24T12:15:09.987Z,17.00
2019-02-24T12:17:38.430Z,17.20
2019-02-24T12:20:09.924Z,17.40
2019-02-24T12:22:38.357Z,17.40
2019-02-24T12:25:08.848Z,17.40
2019-02-24T12:27:37.295Z,18.00
2019-02-24T12:30:15.927Z,18.10
2019-02-24T12:32:44.429Z,18.40
2019-02-24T12:35:12.878Z,18.90
2019-02-24T12:37:41.318Z,19.00
2019-02-24T12:40:11.212Z,19.20
2019-02-24T12:42:39.687Z,19.50
2019-02-24T12:45:09.587Z,19.90
2019-02-24T12:47:38.027Z,20.00
2019-02-24T12:50:09.705Z,20.00
2019-02-24T12:52:38.149Z,20.30
2019-02-24T12:55:08.449Z,20.50
2019-02-24T12:57:37.311Z,20.50
2019-02-24T13:00:10.605Z,21.20
2019-02-24T13:02:39.047Z,22.30
2019-02-24T13:05:07.835Z,22.90
2019-02-24T13:07:36.267Z,24.30
2019-02-24T13:10:10.648Z,25.50
2019-02-24T13:12:39.084Z,26.50
2019-02-24T13:15:07.597Z,26.90
2019-02-24T13:17:36.037Z,27.70
2019-02-24T13:20:07.076Z,28.00
2019-02-24T13:22:35.545Z,28.10
2019-02-24T13:25:04.257Z,28.40
2019-02-24T13:27:32.694Z,28.50
2019-02-24T13:30:01.382Z,28.30
2019-02-24T13:32:29.833Z,28.50
2019-02-24T13:34:58.298Z,28.50
2019-02-24T13:37:26.753Z,28.40
2019-02-24T13:39:55.195Z,28.30
2019-02-24T13:42:23.654Z,28.40
2019-02-24T13:44:52.118Z,28.50
2019-02-24T13:47:20.553Z,28.00
2019-02-24T13:49:49.447Z,27.60
2019-02-24T13:52:17.892Z,28.00
2019-02-24T13:54:46.331Z,27.80
2019-02-24T13:57:14.781Z,27.90
2019-02-24T13:59:43.206Z,28.10
2019-02-24T14:02:11.656Z,27.50
2019-02-24T14:04:40.094Z,27.90
2019-02-24T14:07:08.539Z,28.10
2019-02-24T14:09:37.003Z,28.40
2019-02-24T14:12:05.435Z,27.90
2019-02-24T14:14:33.870Z,27.50
2019-02-24T14:17:02.324Z,26.30
2019-02-24T14:19:30.767Z,26.10
2019-02-24T14:21:59.206Z,25.90
2019-02-24T14:24:27.649Z,26.20
2019-02-24T14:26:56.096Z,25.70
2019-02-24T14:29:24.536Z,24.70
2019-02-24T14:31:52.979Z,23.60
2019-02-24T14:34:21.426Z,22.20
2019-02-24T14:36:49.870Z,21.20
2019-02-24T14:39:18.318Z,20.40
2019-02-24T14:41:46.775Z,20.10
2019-02-24T14:44:15.211Z,19.80
2019-02-24T14:46:43.704Z,19.30
2019-02-24T14:49:12.214Z,18.60
2019-02-24T14:51:40.682Z,18.10
2019-02-24T14:54:09.105Z,17.80
2019-02-24T14:56:37.562Z,17.70
2019-02-24T14:59:05.994Z,17.50
2019-02-24T15:01:34.447Z,17.00
2019-02-24T15:04:02.905Z,16.80
2019-02-24T15:06:31.376Z,16.80
2019-02-24T15:08:59.817Z,16.50
2019-02-24T15:11:28.261Z,16.30
2019-02-24T15:13:56.707Z,16.00
2019-02-24T15:16:25.151Z,16.20
2019-02-24T15:18:53.586Z,17.60
2019-02-24T15:21:22.026Z,19.40
2019-02-24T15:23:50.470Z,21.00
2019-02-24T15:26:18.918Z,22.20
2019-02-24T15:28:47.367Z,22.90
2019-02-24T15:31:15.823Z,23.20
2019-02-24T15:33:44.261Z,23.10
2019-02-24T15:36:12.822Z,23.20
2019-02-24T15:38:41.362Z,23.40
2019-02-24T15:41:09.802Z,23.60
2019-02-24T15:43:38.251Z,23.70
2019-02-24T15:46:06.695Z,23.70
2019-02-24T15:48:35.152Z,23.20
2019-02-24T15:51:03.586Z,22.60
2019-02-24T15:53:32.038Z,22.20
2019-02-24T15:56:01.036Z,21.80
2019-02-24T15:58:29.488Z,21.40
2019-02-24T16:00:57.930Z,21.00
2019-02-24T16:03:26.377Z,20.50
2019-02-24T16:05:54.822Z,20.10
2019-02-24T16:08:23.276Z,19.80
2019-02-24T16:10:51.702Z,19.40
2019-02-24T16:13:20.152Z,19.00
2019-02-24T16:15:48.618Z,18.30
2019-02-24T16:18:17.057Z,18.00
2019-02-24T16:20:45.498Z,17.80
2019-02-24T16:23:13.998Z,17.60
2019-02-24T16:25:42.494Z,17.20
2019-02-24T16:28:10.951Z,16.60
2019-02-24T16:30:39.402Z,16.10
2019-02-24T16:33:10.574Z,15.60
2019-02-24T16:35:38.047Z,15.20
2019-02-24T16:38:06.500Z,14.60
2019-02-24T16:40:34.962Z,14.20
2019-02-24T16:43:03.454Z,13.90
2019-02-24T16:45:31.948Z,13.60
2019-02-24T16:48:00.405Z,13.40
2019-02-24T16:50:28.841Z,13.20
2019-02-24T16:52:57.314Z,12.90
2019-02-24T16:55:25.765Z,12.70
2019-02-24T16:57:54.239Z,12.40
2019-02-24T17:00:24.915Z,12.20
2019-02-24T17:02:53.429Z,12.10
2019-02-24T17:05:21.938Z,11.80
2019-02-24T17:07:50.434Z,11.50
2019-02-24T17:10:38.244Z,11.30
2019-02-24T17:13:06.702Z,11.10
2019-02-24T17:15:35.167Z,10.80
2019-02-24T17:18:03.615Z,10.60
2019-02-24T17:20:32.046Z,10.40
2019-02-24T17:23:00.489Z,10.30
2019-02-24T17:25:28.913Z,10.00
2019-02-24T17:27:57.375Z,9.80
2019-02-24T17:30:25.869Z,9.70
2019-02-24T17:32:54.315Z,9.60
2019-02-24T17:35:22.740Z,9.40
2019-02-24T17:37:51.334Z,9.30
2019-02-24T17:40:20.904Z,9.20
2019-02-24T17:42:49.453Z,9.00
2019-02-24T17:45:17.926Z,8.80
2019-02-24T17:47:46.381Z,8.50
2019-02-24T17:50:35.680Z,8.50
2019-02-24T17:53:04.137Z,8.30
2019-02-24T17:55:32.593Z,8.20
2019-02-24T17:58:01.039Z,8.00
2019-02-24T18:00:31.507Z,7.90
2019-02-24T18:02:59.974Z,7.80
2019-02-24T18:05:28.410Z,7.60
2019-02-24T18:07:56.862Z,7.40
2019-02-24T18:10:25.370Z,7.30
2019-02-24T18:12:53.821Z,7.20
2019-02-24T18:15:41.604Z,7.20
2019-02-24T18:18:10.071Z,7.10
2019-02-24T18:20:38.509Z,6.90
2019-02-24T18:23:06.956Z,6.70
2019-02-24T18:25:35.433Z,6.60
2019-02-24T18:28:03.903Z,6.60
2019-02-24T18:30:32.411Z,6.40
2019-02-24T18:33:00.866Z,6.30
2019-02-24T18:35:29.312Z,6.20
2019-02-24T18:37:57.750Z,6.20
2019-02-24T18:40:26.253Z,6.10
2019-02-24T18:43:14.038Z,6.10
2019-02-24T18:45:42.491Z,6.00
2019-02-24T18:48:30.327Z,6.00
2019-02-24T18:50:58.818Z,5.90
2019-02-24T18:53:27.269Z,5.80
2019-02-24T18:55:55.707Z,5.80
2019-02-24T18:58:24.162Z,5.80
2019-02-24T19:00:52.585Z,5.80
2019-02-24T19:03:21.037Z,5.70
2019-02-24T19:05:49.592Z,5.60
2019-02-24T19:08:18.109Z,5.40
2019-02-24T19:10:46.593Z,5.40
2019-02-24T19:13:15.039Z,5.40
2019-02-24T19:15:43.473Z,5.20
2019-02-24T19:18:11.924Z,5.20
2019-02-24T19:20:40.361Z,5.10
2019-02-24T19:23:08.818Z,5.10
2019-02-24T19:25:37.264Z,5.10
2019-02-24T19:28:05.718Z,5.10
2019-02-24T19:30:34.153Z,5.10
2019-02-24T19:33:02.591Z,5.00
2019-02-24T19:35:31.034Z,5.00
2019-02-24T19:37:59.482Z,5.00
2019-02-24T19:40:27.947Z,5.00
2019-02-24T19:42:57.726Z,5.00
2019-02-24T19:45:26.543Z,5.00
2019-02-24T19:47:54.984Z,5.00
2019-02-24T19:50:23.566Z,4.90
2019-02-24T19:52:52.006Z,5.00
2019-02-24T19:55:20.449Z,4.90
2019-02-24T19:57:48.876Z,4.80
2019-02-24T20:00:19.529Z,4.80
2019-02-24T20:02:48.038Z,4.70
2019-02-24T20:05:16.625Z,4.60
2019-02-24T20:07:45.062Z,4.50
2019-02-24T20:10:16.583Z,4.50
2019-02-24T20:12:45.022Z,4.40
2019-02-24T20:15:15.399Z,4.40
2019-02-24T20:17:45.802Z,4.30
2019-02-24T20:20:19.190Z,4.20
2019-02-24T20:22:47.712Z,4.10
2019-02-24T20:25:18.661Z,4.10
2019-02-24T20:27:47.166Z,4.10
2019-02-24T20:30:21.424Z,4.00
2019-02-24T20:32:49.854Z,3.90
2019-02-24T20:35:18.367Z,3.90
2019-02-24T20:37:46.798Z,3.80
2019-02-24T20:40:15.242Z,3.80
2019-02-24T20:42:43.681Z,3.80
2019-02-24T20:45:17.369Z,3.80
2019-02-24T20:47:46.815Z,3.70
2019-02-24T20:50:25.785Z,3.70
2019-02-24T20:52:54.222Z,3.60
2019-02-24T20:55:22.677Z,3.60
2019-02-24T20:57:51.143Z,3.50
2019-02-24T21:00:28.221Z,3.50
2019-02-24T21:02:56.654Z,3.40
2019-02-24T21:05:25.155Z,3.40
2019-02-24T21:07:53.589Z,3.40
2019-02-24T21:10:22.155Z,3.50
2019-02-24T21:12:51.610Z,3.50
2019-02-24T21:15:20.210Z,3.50
2019-02-24T21:17:48.755Z,3.50
2019-02-24T21:20:20.099Z,3.50
2019-02-24T21:22:50.503Z,3.50
2019-02-24T21:25:18.848Z,3.50
2019-02-24T21:27:47.299Z,3.50
2019-02-24T21:30:17.566Z,3.50
2019-02-24T21:32:46.085Z,3.50
2019-02-24T21:35:17.031Z,3.50
2019-02-24T21:37:45.135Z,3.50
2019-02-24T21:40:15.906Z,3.40
2019-02-24T21:42:44.372Z,3.40
2019-02-24T21:45:17.982Z,3.50
2019-02-24T21:47:46.425Z,3.50
2019-02-24T21:50:16.415Z,3.40
2019-02-24T21:52:44.850Z,3.40
2019-02-24T21:55:13.720Z,3.40
2019-02-24T21:57:42.193Z,3.30
2019-02-24T22:00:27.477Z,3.30
2019-02-24T22:02:56.862Z,3.30
2019-02-24T22:05:25.330Z,3.30
2019-02-24T22:07:55.656Z,3.20
2019-02-24T22:10:23.945Z,3.20
2019-02-24T22:12:52.373Z,3.20
2019-02-24T22:15:41.703Z,3.20
2019-02-24T22:18:10.135Z,3.20
2019-02-24T22:20:38.579Z,3.20
2019-02-24T22:23:07.027Z,3.10
2019-02-24T22:25:35.469Z,3.10
2019-02-24T22:28:03.894Z,3.10
2019-02-24T22:30:32.410Z,3.10
2019-02-24T22:33:00.879Z,3.10
2019-02-24T22:35:29.387Z,3.00
2019-02-24T22:37:57.833Z,3.00
2019-02-24T22:40:26.290Z,2.90
2019-02-24T22:42:54.714Z,2.90
2019-02-24T22:45:23.158Z,2.90
2019-02-24T22:47:52.438Z,2.90
2019-02-24T22:50:20.877Z,2.90
2019-02-24T22:52:49.312Z,2.90
2019-02-24T22:55:18.790Z,2.80
2019-02-24T22:57:47.238Z,2.70
2019-02-24T23:03:30.057Z,2.70
2019-02-24T23:05:58.550Z,2.70
2019-02-24T23:08:26.981Z,2.70
2019-02-24T23:10:55.422Z,2.60
2019-02-24T23:13:23.860Z,2.60
2019-02-24T23:15:52.313Z,2.60
2019-02-24T23:18:20.745Z,2.60
2019-02-24T23:20:49.178Z,2.60
2019-02-24T23:23:17.661Z,2.60
2019-02-24T23:25:46.157Z,2.60
2019-02-24T23:28:14.589Z,2.60
2019-02-24T23:30:43.917Z,2.50
2019-02-24T23:33:12.351Z,2.50
2019-02-24T23:35:40.865Z,2.40
2019-02-24T23:38:09.298Z,2.40
2019-02-24T23:40:37.733Z,2.40
2019-02-24T23:43:06.233Z,2.40
2019-02-24T23:45:34.674Z,2.40
2019-02-24T23:48:03.120Z,2.40
2019-02-24T23:50:31.554Z,2.40
2019-02-24T23:52:59.985Z,2.40
2019-02-24T23:55:28.537Z,2.30
2019-02-24T23:57:56.977Z,2.40
